createdAt,value
2022-08-17T00:00:43.244Z,9.68
2022-08-17T00:03:13.669Z,10.10
2022-08-17T00:05:49.397Z,9.30
2022-08-17T00:08:19.527Z,8.95
2022-08-17T00:10:47.799Z,10.32
2022-08-17T00:13:25.892Z,10.25
2022-08-17T00:15:58.909Z,11.00
2022-08-17T00:19:01.662Z,10.55
2022-08-17T00:21:23.859Z,10.63
2022-08-17T00:23:53.622Z,10.60
2022-08-17T00:26:43.999Z,10.07
2022-08-17T00:29:09.881Z,10.50
2022-08-17T00:31:47.241Z,10.77
2022-08-17T00:34:14.566Z,10.25
2022-08-17T00:36:41.823Z,10.32
2022-08-17T00:39:09.102Z,10.88
2022-08-17T00:41:36.501Z,10.40
2022-08-17T00:44:10.294Z,9.77
2022-08-17T00:46:44.572Z,10.32
2022-08-17T00:49:13.650Z,9.73
2022-08-17T00:51:44.000Z,10.07
2022-08-17T00:54:33.579Z,9.88
2022-08-17T00:57:15.536Z,9.88
2022-08-17T00:59:51.092Z,9.43
2022-08-17T01:02:30.503Z,9.05
2022-08-17T01:05:02.022Z,9.93
2022-08-17T01:07:29.279Z,10.35
2022-08-17T01:09:56.811Z,11.57
2022-08-17T01:12:24.129Z,10.10
2022-08-17T01:14:51.481Z,10.57
2022-08-17T01:17:18.869Z,10.55
2022-08-17T01:19:46.277Z,10.80
2022-08-17T01:22:14.549Z,10.48
2022-08-17T01:24:45.203Z,10.38
2022-08-17T01:27:14.029Z,10.60
2022-08-17T01:29:44.932Z,10.55
2022-08-17T01:32:12.935Z,11.10
2022-08-17T01:34:43.322Z,11.00
2022-08-17T01:37:18.269Z,11.30
2022-08-17T01:39:58.185Z,10.93
2022-08-17T01:42:56.432Z,11.07
2022-08-17T01:45:27.049Z,11.20
2022-08-17T01:47:55.689Z,10.30
2022-08-17T01:50:27.669Z,10.23
2022-08-17T01:53:00.209Z,9.82
2022-08-17T01:55:37.210Z,10.13
2022-08-17T01:58:09.161Z,10.00
2022-08-17T02:00:46.774Z,10.38
2022-08-17T02:03:27.755Z,11.15
2022-08-17T02:05:55.349Z,10.20
2022-08-17T02:08:38.934Z,9.82
2022-08-17T02:11:14.919Z,10.52
2022-08-17T02:13:46.647Z,10.18
2022-08-17T02:16:15.357Z,9.85
2022-08-17T02:18:42.949Z,9.57
2022-08-17T02:21:11.402Z,9.32
2022-08-17T02:23:43.971Z,9.52
2022-08-17T02:26:24.049Z,8.98
2022-08-17T02:28:54.233Z,9.20
2022-08-17T02:31:21.676Z,9.63
2022-08-17T02:33:56.599Z,9.35
2022-08-17T02:36:33.010Z,9.98
2022-08-17T02:39:07.993Z,9.05
2022-08-17T02:41:35.830Z,9.48
2022-08-17T02:44:03.491Z,9.45
2022-08-17T02:46:31.338Z,9.35
2022-08-17T02:48:59.603Z,9.10
2022-08-17T02:51:27.994Z,9.57
2022-08-17T02:54:38.799Z,9.70
2022-08-17T02:56:43.355Z,9.73
2022-08-17T02:59:10.853Z,9.65
2022-08-17T03:01:38.819Z,9.10
2022-08-17T03:04:06.162Z,10.05
2022-08-17T03:06:33.487Z,10.25
2022-08-17T03:09:00.860Z,10.35
2022-08-17T03:11:28.304Z,9.90
2022-08-17T03:13:55.798Z,9.00
2022-08-17T03:16:23.327Z,9.85
2022-08-17T03:18:50.864Z,9.48
2022-08-17T03:21:18.145Z,10.05
2022-08-17T03:23:45.519Z,8.88
2022-08-17T03:26:15.477Z,8.48
2022-08-17T03:28:43.663Z,9.38
2022-08-17T03:31:10.977Z,9.82
2022-08-17T03:33:38.349Z,9.65
2022-08-17T03:36:06.101Z,10.02
2022-08-17T03:38:38.977Z,11.07
2022-08-17T03:41:07.376Z,9.80
2022-08-17T03:43:35.423Z,10.30
2022-08-17T03:46:34.229Z,10.38
2022-08-17T03:49:26.493Z,9.70
2022-08-17T03:52:13.533Z,10.00
2022-08-17T03:55:00.749Z,9.90
2022-08-17T03:57:28.158Z,10.27
2022-08-17T03:59:56.246Z,9.25
2022-08-17T04:02:32.237Z,10.25
2022-08-17T04:05:00.572Z,9.10
2022-08-17T04:07:31.165Z,8.80
2022-08-17T04:09:59.721Z,8.70
2022-08-17T04:12:31.219Z,9.17
2022-08-17T04:14:59.316Z,10.10
2022-08-17T04:17:28.716Z,9.95
2022-08-17T04:19:56.773Z,10.05
2022-08-17T04:22:32.233Z,9.73
2022-08-17T04:25:21.511Z,10.05
2022-08-17T04:27:49.130Z,9.52
2022-08-17T04:30:16.521Z,8.57
2022-08-17T04:33:07.248Z,7.30
2022-08-17T04:35:48.025Z,7.15
2022-08-17T04:38:22.814Z,7.50
2022-08-17T04:41:09.286Z,7.82
2022-08-17T04:43:38.963Z,7.72
2022-08-17T04:46:10.434Z,8.45
2022-08-17T04:48:41.387Z,8.82
2022-08-17T04:51:12.524Z,10.02
2022-08-17T04:53:42.304Z,10.00
2022-08-17T04:56:15.987Z,10.48
2022-08-17T04:58:46.842Z,10.80
2022-08-17T05:01:15.558Z,10.35
2022-08-17T05:03:44.229Z,10.38
2022-08-17T05:06:11.870Z,10.18
2022-08-17T05:08:39.389Z,8.93
2022-08-17T05:11:06.913Z,9.50
2022-08-17T05:13:34.271Z,9.38
2022-08-17T05:16:05.749Z,9.10
2022-08-17T05:18:33.516Z,9.43
2022-08-17T05:21:01.002Z,13.98
2022-08-17T05:23:42.025Z,11.98
2022-08-17T05:26:25.805Z,14.50
2022-08-17T05:28:55.502Z,16.35
2022-08-17T05:31:24.994Z,16.92
2022-08-17T05:33:53.537Z,10.57
2022-08-17T05:36:43.093Z,9.00
2022-08-17T05:39:08.391Z,9.35
2022-08-17T05:41:42.929Z,7.28
2022-08-17T05:44:10.776Z,8.20
2022-08-17T05:46:42.251Z,7.07
2022-08-17T05:49:10.255Z,7.60
2022-08-17T05:52:13.355Z,7.20
2022-08-17T05:55:37.203Z,6.95
2022-08-17T05:58:10.311Z,7.50
2022-08-17T06:00:51.934Z,6.53
2022-08-17T06:03:37.931Z,7.10
2022-08-17T06:06:42.475Z,6.95
2022-08-17T06:09:26.646Z,7.10
2022-08-17T06:12:24.931Z,6.93
2022-08-17T06:15:11.115Z,6.57
2022-08-17T06:17:39.350Z,6.93
2022-08-17T06:20:12.008Z,9.18
2022-08-17T06:22:46.582Z,6.60
2022-08-17T06:25:35.250Z,6.65
2022-08-17T06:28:08.999Z,6.60
2022-08-17T06:31:07.388Z,6.97
2022-08-17T06:33:39.665Z,6.60
2022-08-17T06:36:36.202Z,7.57
2022-08-17T06:39:18.689Z,6.60
2022-08-17T06:41:49.841Z,7.13
2022-08-17T06:44:43.708Z,6.40
2022-08-17T06:47:33.850Z,6.32
2022-08-17T06:50:08.523Z,6.63
2022-08-17T06:52:47.496Z,6.93
2022-08-17T06:55:26.501Z,6.28
2022-08-17T06:57:59.441Z,6.30
2022-08-17T07:00:40.986Z,6.55
2022-08-17T07:03:38.166Z,6.57
2022-08-17T07:06:14.692Z,6.50
2022-08-17T07:08:51.115Z,7.47
2022-08-17T07:11:51.276Z,7.22
2022-08-17T07:14:53.356Z,7.30
2022-08-17T07:17:46.372Z,6.13
2022-08-17T07:20:15.386Z,6.82
2022-08-17T07:23:13.935Z,6.72
2022-08-17T07:25:41.324Z,7.78
2022-08-17T07:28:08.652Z,7.10
2022-08-17T07:30:51.592Z,6.75
2022-08-17T07:33:28.992Z,6.43
2022-08-17T07:35:58.777Z,6.30
2022-08-17T07:38:34.777Z,6.90
2022-08-17T07:41:06.538Z,6.93
2022-08-17T07:43:40.194Z,6.88
2022-08-17T07:46:41.950Z,7.43
2022-08-17T07:49:14.938Z,7.60
2022-08-17T07:51:47.933Z,8.90
2022-08-17T07:54:22.743Z,9.50
2022-08-17T07:56:54.944Z,8.02
2022-08-17T07:59:28.609Z,9.93
2022-08-17T08:02:04.017Z,8.18
2022-08-17T08:07:32.283Z,9.77
2022-08-17T08:10:01.630Z,8.10
2022-08-17T08:12:44.504Z,7.57
2022-08-17T08:15:18.963Z,8.32
2022-08-17T08:17:58.819Z,8.30
2022-08-17T08:21:00.692Z,8.38
2022-08-17T08:23:59.875Z,7.35
2022-08-17T08:26:48.287Z,7.20
2022-08-17T08:29:40.232Z,6.68
2022-08-17T08:32:20.782Z,6.20
2022-08-17T08:35:08.717Z,6.20
2022-08-17T08:37:56.450Z,5.70
2022-08-17T08:40:46.759Z,5.55
2022-08-17T08:43:25.037Z,5.57
2022-08-17T08:46:25.601Z,5.05
2022-08-17T08:49:10.239Z,5.30
2022-08-17T08:51:51.609Z,5.47
2022-08-17T08:54:52.408Z,5.57
2022-08-17T08:57:53.801Z,5.05
2022-08-17T09:00:24.187Z,4.90
2022-08-17T09:03:20.313Z,4.70
2022-08-17T09:06:37.399Z,5.47
2022-08-17T09:09:42.378Z,5.18
2022-08-17T09:12:20.340Z,5.07
2022-08-17T09:14:56.690Z,4.90
2022-08-17T09:19:02.231Z,5.20
2022-08-17T09:21:18.082Z,5.20
2022-08-17T09:24:20.660Z,5.10
2022-08-17T09:27:03.204Z,4.85
2022-08-17T09:29:35.505Z,4.93
2022-08-17T09:32:12.991Z,4.97
2022-08-17T09:34:55.092Z,5.18
2022-08-17T09:37:43.275Z,4.88
2022-08-17T09:40:15.213Z,5.40
2022-08-17T09:43:04.777Z,5.47
2022-08-17T09:45:51.643Z,4.95
2022-08-17T09:48:31.413Z,5.57
2022-08-17T09:51:18.844Z,4.75
2022-08-17T09:53:46.266Z,4.60
2022-08-17T09:56:34.943Z,4.88
2022-08-17T09:59:17.341Z,4.65
2022-08-17T10:02:26.563Z,5.15
2022-08-17T10:05:07.902Z,5.32
2022-08-17T10:07:55.906Z,4.60
2022-08-17T10:10:36.167Z,4.57
2022-08-17T10:13:18.817Z,4.05
2022-08-17T10:16:09.405Z,5.45
2022-08-17T10:19:21.135Z,4.32
2022-08-17T10:22:14.927Z,4.07
2022-08-17T10:25:21.870Z,4.47
2022-08-17T10:28:05.732Z,4.32
2022-08-17T10:30:43.808Z,4.40
2022-08-17T10:33:28.373Z,3.78
2022-08-17T10:35:58.462Z,4.38
2022-08-17T10:38:31.929Z,4.43
2022-08-17T10:41:06.176Z,4.22
2022-08-17T10:44:40.357Z,4.90
2022-08-17T10:47:12.105Z,4.03
2022-08-17T10:49:54.453Z,4.28
2022-08-17T10:52:27.700Z,4.10
2022-08-17T10:54:58.768Z,4.20
2022-08-17T10:57:42.952Z,3.72
2022-08-17T11:00:16.095Z,4.38
2022-08-17T11:02:50.674Z,4.78
2022-08-17T11:05:55.839Z,4.30
2022-08-17T11:08:43.495Z,3.70
2022-08-17T11:11:39.210Z,3.92
2022-08-17T11:14:21.683Z,3.70
2022-08-17T11:17:11.545Z,3.20
2022-08-17T11:19:45.288Z,2.97
2022-08-17T11:22:34.343Z,3.38
2022-08-17T11:25:16.271Z,3.53
2022-08-17T11:27:45.563Z,3.17
2022-08-17T11:30:21.097Z,3.38
2022-08-17T11:32:54.634Z,4.07
2022-08-17T11:35:22.549Z,3.50
2022-08-17T11:38:16.018Z,3.60
2022-08-17T11:41:05.079Z,4.00
2022-08-17T11:44:02.052Z,3.40
2022-08-17T11:47:00.495Z,3.72
2022-08-17T11:49:58.814Z,3.80
2022-08-17T11:52:45.983Z,4.05
2022-08-17T11:55:40.745Z,3.40
2022-08-17T11:58:30.031Z,3.80
2022-08-17T12:01:02.260Z,4.18
2022-08-17T12:03:32.258Z,3.58
2022-08-17T12:06:17.775Z,3.75
2022-08-17T12:08:55.159Z,3.60
2022-08-17T12:12:13.639Z,3.95
2022-08-17T12:17:41.328Z,3.40
2022-08-17T12:20:15.279Z,3.90
2022-08-17T12:23:17.687Z,4.60
2022-08-17T12:25:51.111Z,3.70
2022-08-17T12:28:30.579Z,3.65
2022-08-17T12:31:08.089Z,4.13
2022-08-17T12:33:37.843Z,3.78
2022-08-17T12:36:08.951Z,3.67
2022-08-17T12:38:38.572Z,3.55
2022-08-17T12:41:26.695Z,3.88
2022-08-17T12:44:19.540Z,3.85
2022-08-17T12:46:53.090Z,3.90
2022-08-17T12:49:30.948Z,3.67
2022-08-17T12:52:25.244Z,4.38
2022-08-17T12:55:03.335Z,3.60
2022-08-17T12:57:39.746Z,3.63
2022-08-17T13:00:17.967Z,3.70
2022-08-17T13:02:50.526Z,3.90
2022-08-17T13:05:36.379Z,4.03
2022-08-17T13:08:18.958Z,2.92
2022-08-17T13:10:57.166Z,3.55
2022-08-17T13:13:35.268Z,3.22
2022-08-17T13:16:04.768Z,3.47
2022-08-17T13:18:34.863Z,3.35
2022-08-17T13:21:02.592Z,3.22
2022-08-17T13:23:32.443Z,3.50
2022-08-17T13:26:16.164Z,3.25
2022-08-17T13:28:51.925Z,3.30
2022-08-17T13:31:28.284Z,3.33
2022-08-17T13:34:19.054Z,3.72
2022-08-17T13:36:47.960Z,3.75
2022-08-17T13:39:24.056Z,3.38
2022-08-17T13:41:54.173Z,3.50
2022-08-17T13:44:40.737Z,4.22
2022-08-17T13:47:20.179Z,3.67
2022-08-17T13:49:49.235Z,3.83
2022-08-17T13:52:52.366Z,4.07
2022-08-17T13:55:23.072Z,3.60
2022-08-17T13:58:05.070Z,3.40
2022-08-17T14:00:36.834Z,3.80
2022-08-17T14:03:05.795Z,3.70
2022-08-17T14:05:38.062Z,3.50
2022-08-17T14:08:07.216Z,3.90
2022-08-17T14:10:36.772Z,3.80
2022-08-17T14:13:05.055Z,3.60
2022-08-17T14:15:56.108Z,3.88
2022-08-17T14:18:34.272Z,3.33
2022-08-17T14:21:09.007Z,3.50
2022-08-17T14:23:37.467Z,3.75
2022-08-17T14:26:05.501Z,4.13
2022-08-17T14:28:32.840Z,3.40
2022-08-17T14:31:03.815Z,3.70
2022-08-17T14:33:31.114Z,3.72
2022-08-17T14:35:58.449Z,3.60
2022-08-17T14:38:26.098Z,3.95
2022-08-17T14:40:54.096Z,3.83
2022-08-17T14:43:21.518Z,3.28
2022-08-17T14:45:49.185Z,3.63
2022-08-17T14:48:17.414Z,3.95
2022-08-17T14:50:46.448Z,4.70
2022-08-17T14:53:16.003Z,4.82
2022-08-17T14:55:46.895Z,4.65
2022-08-17T14:58:14.640Z,5.10
2022-08-17T15:00:46.425Z,4.70
2022-08-17T15:03:14.801Z,4.72
2022-08-17T15:05:44.440Z,4.93
2022-08-17T15:08:11.792Z,5.13
2022-08-17T15:10:39.495Z,5.28
2022-08-17T15:13:20.196Z,4.53
2022-08-17T15:15:48.576Z,4.85
2022-08-17T15:18:16.564Z,4.60
2022-08-17T15:20:45.163Z,5.22
2022-08-17T15:23:16.960Z,4.82
2022-08-17T15:25:45.322Z,4.97
2022-08-17T15:28:12.837Z,4.57
2022-08-17T15:30:44.993Z,4.90
2022-08-17T15:33:17.764Z,5.18
2022-08-17T15:35:45.652Z,4.93
2022-08-17T15:38:13.639Z,4.40
2022-08-17T15:40:46.683Z,4.60
2022-08-17T15:43:20.117Z,5.28
2022-08-17T15:46:02.159Z,4.03
2022-08-17T15:48:44.023Z,4.25
2022-08-17T15:51:16.355Z,4.82
2022-08-17T15:53:46.875Z,4.70
2022-08-17T15:56:15.187Z,4.93
2022-08-17T15:58:44.451Z,4.55
2022-08-17T16:01:17.003Z,4.35
2022-08-17T16:04:04.213Z,4.72
2022-08-17T16:06:32.344Z,4.40
2022-08-17T16:09:00.710Z,4.90
2022-08-17T16:11:27.996Z,4.78
2022-08-17T16:13:56.147Z,4.55
2022-08-17T16:16:24.743Z,4.72
2022-08-17T16:18:53.684Z,4.72
2022-08-17T16:21:27.082Z,5.05
2022-08-17T16:24:05.133Z,5.15
2022-08-17T16:26:40.847Z,6.15
2022-08-17T16:29:08.394Z,5.32
2022-08-17T16:31:37.822Z,4.88
2022-08-17T16:34:16.970Z,4.85
2022-08-17T16:36:55.092Z,5.03
2022-08-17T16:39:29.544Z,4.78
2022-08-17T16:41:57.654Z,4.78
2022-08-17T16:44:27.796Z,4.80
2022-08-17T16:46:55.112Z,4.53
2022-08-17T16:49:36.238Z,4.80
2022-08-17T16:52:08.059Z,4.70
2022-08-17T16:54:38.567Z,12.40
2022-08-17T16:57:05.912Z,10.15
2022-08-17T16:59:41.138Z,6.88
2022-08-17T17:02:13.671Z,5.45
2022-08-17T17:04:48.411Z,5.75
2022-08-17T17:07:26.029Z,6.03
2022-08-17T17:09:56.071Z,5.20
2022-08-17T17:13:01.130Z,5.53
2022-08-17T17:15:13.111Z,65.70
2022-08-17T17:17:41.969Z,37.13
2022-08-17T17:20:23.147Z,16.17
2022-08-17T17:23:39.428Z,17.95
2022-08-17T17:26:34.598Z,18.85
2022-08-17T17:29:25.968Z,24.15
2022-08-17T17:32:17.296Z,35.28
2022-08-17T17:34:51.004Z,13.52
2022-08-17T17:37:34.834Z,10.70
2022-08-17T17:40:13.109Z,8.13
2022-08-17T17:42:42.473Z,6.75
2022-08-17T17:45:31.575Z,6.97
2022-08-17T17:47:58.954Z,6.57
2022-08-17T17:50:36.753Z,5.95
2022-08-17T17:53:12.933Z,6.40
2022-08-17T17:55:50.832Z,6.45
2022-08-17T17:58:42.937Z,6.93
2022-08-17T18:01:19.360Z,7.40
2022-08-17T18:04:15.671Z,8.55
2022-08-17T18:07:12.457Z,7.22
2022-08-17T18:10:01.120Z,10.80
2022-08-17T18:12:46.407Z,26.95
2022-08-17T18:15:36.561Z,33.08
2022-08-17T18:18:40.019Z,32.92
2022-08-17T18:21:19.623Z,25.45
2022-08-17T18:24:01.571Z,17.27
2022-08-17T18:26:56.672Z,15.88
2022-08-17T18:29:34.612Z,15.48
2022-08-17T18:32:26.814Z,14.55
2022-08-17T18:34:57.866Z,16.38
2022-08-17T18:37:43.201Z,17.50
2022-08-17T18:40:19.882Z,18.33
2022-08-17T18:43:00.499Z,16.02
2022-08-17T18:45:47.253Z,17.77
2022-08-17T18:48:28.706Z,16.65
2022-08-17T18:51:18.340Z,13.45
2022-08-17T18:53:46.352Z,14.00
2022-08-17T18:56:36.395Z,14.32
2022-08-17T18:59:12.253Z,12.35
2022-08-17T19:02:05.071Z,13.13
2022-08-17T19:05:11.312Z,11.82
2022-08-17T19:07:45.340Z,8.30
2022-08-17T19:10:22.034Z,7.55
2022-08-17T19:12:55.528Z,7.03
2022-08-17T19:15:36.226Z,9.80
2022-08-17T19:18:36.329Z,8.20
2022-08-17T19:21:24.472Z,8.93
2022-08-17T19:23:59.857Z,7.88
2022-08-17T19:26:54.010Z,10.43
2022-08-17T19:29:47.153Z,7.70
2022-08-17T19:32:17.820Z,7.88
2022-08-17T19:34:45.202Z,8.02
2022-08-17T19:37:33.241Z,8.98
2022-08-17T19:40:41.767Z,10.13
2022-08-17T19:43:23.715Z,10.55
2022-08-17T19:46:07.372Z,9.00
2022-08-17T19:49:13.047Z,7.72
2022-08-17T19:51:49.300Z,8.15
2022-08-17T19:54:25.178Z,7.22
2022-08-17T19:57:13.860Z,7.05
2022-08-17T20:00:11.232Z,7.60
2022-08-17T20:03:05.919Z,7.93
2022-08-17T20:06:11.567Z,8.48
2022-08-17T20:08:48.417Z,8.00
2022-08-17T20:11:28.512Z,7.88
2022-08-17T20:14:10.134Z,8.23
2022-08-17T20:16:37.442Z,7.20
2022-08-17T20:19:06.831Z,8.65
2022-08-17T20:21:59.255Z,8.07
2022-08-17T20:24:46.877Z,8.30
2022-08-17T20:27:31.581Z,8.10
2022-08-17T20:30:02.132Z,7.60
2022-08-17T20:32:35.806Z,8.63
2022-08-17T20:35:21.725Z,8.73
2022-08-17T20:38:09.037Z,8.13
2022-08-17T20:40:56.416Z,8.93
2022-08-17T20:43:32.998Z,18.00
2022-08-17T20:46:05.620Z,14.68
2022-08-17T20:48:39.710Z,14.38
2022-08-17T20:51:42.108Z,12.80
2022-08-17T20:54:31.687Z,12.82
2022-08-17T20:57:01.187Z,12.15
2022-08-17T20:59:30.664Z,10.40
2022-08-17T21:02:18.483Z,9.75
2022-08-17T21:05:01.022Z,10.32
2022-08-17T21:07:42.945Z,10.50
2022-08-17T21:10:23.751Z,10.82
2022-08-17T21:13:16.714Z,11.00
2022-08-17T21:15:55.068Z,10.18
2022-08-17T21:18:23.536Z,10.10
2022-08-17T21:21:14.064Z,10.07
2022-08-17T21:23:56.238Z,9.95
2022-08-17T21:26:50.491Z,10.05
2022-08-17T21:29:32.531Z,10.63
2022-08-17T21:32:05.311Z,10.13
2022-08-17T21:34:36.760Z,10.30
2022-08-17T21:37:30.481Z,10.57
2022-08-17T21:40:02.532Z,11.05
2022-08-17T21:42:34.798Z,11.18
2022-08-17T21:45:21.544Z,10.70
2022-08-17T21:47:51.396Z,10.57
2022-08-17T21:50:25.406Z,11.23
2022-08-17T21:52:54.769Z,11.90
2022-08-17T21:55:30.121Z,10.63
2022-08-17T21:58:13.518Z,11.05
2022-08-17T22:00:44.947Z,11.07
2022-08-17T22:03:24.592Z,11.02
2022-08-17T22:05:52.291Z,10.48
2022-08-17T22:08:22.835Z,10.35
2022-08-17T22:10:51.741Z,11.05
2022-08-17T22:13:23.436Z,10.10
2022-08-17T22:16:15.640Z,11.13
2022-08-17T22:18:54.904Z,10.60
2022-08-17T22:21:22.454Z,11.15
2022-08-17T22:24:05.392Z,11.30
2022-08-17T22:27:03.238Z,11.55
2022-08-17T22:29:58.422Z,11.50
2022-08-17T22:32:44.922Z,11.75
2022-08-17T22:35:31.654Z,11.93
2022-08-17T22:38:20.799Z,12.20
2022-08-17T22:40:54.954Z,13.73
2022-08-17T22:43:26.361Z,12.65
2022-08-17T22:45:57.709Z,19.33
2022-08-17T22:48:28.409Z,17.88
2022-08-17T22:51:14.546Z,15.60
2022-08-17T22:54:10.391Z,13.95
2022-08-17T22:56:57.328Z,14.15
2022-08-17T22:59:47.809Z,12.50
2022-08-17T23:02:28.298Z,13.65
2022-08-17T23:05:11.764Z,13.70
2022-08-17T23:07:40.090Z,13.98
2022-08-17T23:10:10.325Z,14.27
2022-08-17T23:12:41.129Z,14.07
2022-08-17T23:15:16.909Z,13.20
2022-08-17T23:17:45.383Z,13.07
2022-08-17T23:20:15.326Z,12.45
2022-08-17T23:22:51.288Z,12.93
2022-08-17T23:25:27.507Z,12.40
2022-08-17T23:27:55.582Z,13.70
2022-08-17T23:30:25.870Z,12.57
2022-08-17T23:32:54.677Z,12.18
2022-08-17T23:35:40.080Z,13.85
2022-08-17T23:38:12.577Z,13.73
2022-08-17T23:40:40.891Z,12.73
2022-08-17T23:43:23.709Z,12.27
2022-08-17T23:46:01.248Z,13.15
2022-08-17T23:48:35.678Z,13.25
2022-08-17T23:51:08.907Z,13.38
2022-08-17T23:53:39.203Z,13.38
2022-08-17T23:56:10.169Z,13.95
2022-08-17T23:58:43.585Z,13.30
